createdAt,value
2023-03-22T00:04:43.404Z,60.40
2023-03-22T00:09:46.360Z,54.42
2023-03-22T00:14:50.234Z,47.97
2023-03-22T00:19:54.736Z,54.40
2023-03-22T00:24:58.144Z,49.63
2023-03-22T00:30:01.661Z,48.22
2023-03-22T00:35:06.387Z,48.60
2023-03-22T00:40:12.670Z,50.63
2023-03-22T00:45:15.741Z,50.65
2023-03-22T00:50:19.046Z,37.55
2023-03-22T00:55:22.531Z,36.15
2023-03-22T01:00:25.609Z,48.55
2023-03-22T01:05:28.810Z,58.72
2023-03-22T01:10:31.977Z,46.85
2023-03-22T01:15:34.746Z,49.88
2023-03-22T01:20:38.500Z,41.70
2023-03-22T01:25:42.170Z,51.15
2023-03-22T01:30:45.506Z,44.05
2023-03-22T01:35:48.721Z,46.58
2023-03-22T01:40:52.938Z,41.88
2023-03-22T01:45:56.366Z,45.33
2023-03-22T01:51:09.091Z,37.65
2023-03-22T01:56:44.052Z,44.00
2023-03-22T02:01:54.812Z,46.33
2023-03-22T02:06:59.310Z,52.35
2023-03-22T02:12:17.693Z,45.25
2023-03-22T02:17:45.480Z,49.38
2023-03-22T02:22:58.665Z,40.03
2023-03-22T02:28:35.438Z,53.42
2023-03-22T02:39:14.403Z,55.50
2023-03-22T02:44:22.797Z,55.15
2023-03-22T02:49:35.062Z,42.22
2023-03-22T02:54:57.024Z,49.30
2023-03-22T03:00:01.634Z,44.63
2023-03-22T03:05:06.839Z,49.30
2023-03-22T03:10:15.009Z,47.10
2023-03-22T03:15:22.527Z,42.70
2023-03-22T03:20:47.341Z,37.95
2023-03-22T03:26:06.769Z,38.33
2023-03-22T03:31:27.425Z,35.67
2023-03-22T03:36:35.511Z,46.33
2023-03-22T03:41:43.012Z,55.65
2023-03-22T03:46:47.013Z,39.55
2023-03-22T03:51:54.301Z,49.47
2023-03-22T03:56:57.146Z,63.05
2023-03-22T04:02:00.652Z,44.63
2023-03-22T04:07:07.457Z,55.70
2023-03-22T04:12:12.807Z,47.65
2023-03-22T04:17:16.451Z,66.43
2023-03-22T04:22:20.520Z,60.95
2023-03-22T04:27:23.495Z,53.72
2023-03-22T04:32:32.566Z,52.67
2023-03-22T04:37:35.336Z,50.58
2023-03-22T04:42:58.277Z,42.50
2023-03-22T04:48:20.769Z,63.70
2023-03-22T04:53:28.171Z,50.25
2023-03-22T04:58:42.842Z,42.72
2023-03-22T05:03:47.706Z,58.28
2023-03-22T05:08:56.812Z,54.83
2023-03-22T05:14:01.365Z,40.47
2023-03-22T05:19:06.878Z,43.78
2023-03-22T05:24:12.414Z,59.95
2023-03-22T05:29:17.875Z,53.30
2023-03-22T05:34:36.555Z,44.78
2023-03-22T05:39:55.208Z,42.60
2023-03-22T05:45:07.158Z,62.90
2023-03-22T05:50:15.759Z,43.88
2023-03-22T05:55:19.276Z,52.13
2023-03-22T06:00:26.259Z,55.35
2023-03-22T06:06:11.034Z,44.03
2023-03-22T06:11:21.513Z,46.13
2023-03-22T06:16:25.745Z,55.22
2023-03-22T06:21:28.862Z,66.13
2023-03-22T06:26:32.233Z,52.42
2023-03-22T06:31:35.735Z,60.45
2023-03-22T06:36:47.720Z,57.60
2023-03-22T06:42:09.826Z,74.32
2023-03-22T06:47:14.858Z,70.10
2023-03-22T06:52:39.916Z,70.35
2023-03-22T06:57:49.905Z,94.82
2023-03-22T07:03:11.754Z,78.50
2023-03-22T07:08:23.341Z,87.10
2023-03-22T07:13:29.112Z,88.90
2023-03-22T07:18:44.198Z,69.88
2023-03-22T07:23:48.638Z,70.93
2023-03-22T07:28:54.948Z,85.60
2023-03-22T07:34:07.308Z,65.00
2023-03-22T07:39:26.045Z,54.35
2023-03-22T07:44:30.539Z,50.67
2023-03-22T07:49:53.946Z,55.00
2023-03-22T08:00:12.180Z,56.55
2023-03-22T08:05:53.874Z,57.63
2023-03-22T08:10:59.140Z,124.45
2023-03-22T08:16:02.089Z,60.03
2023-03-22T08:21:08.367Z,49.88
2023-03-22T08:26:13.848Z,54.50
2023-03-22T08:31:19.049Z,63.13
2023-03-22T08:36:23.514Z,53.42
2023-03-22T08:41:36.664Z,57.75
2023-03-22T08:46:43.338Z,47.28
2023-03-22T08:51:49.903Z,49.33
2023-03-22T08:57:05.672Z,55.97
2023-03-22T09:02:20.485Z,47.80
2023-03-22T09:07:24.609Z,52.72
2023-03-22T09:12:49.657Z,51.53
2023-03-22T09:17:57.278Z,48.78
2023-03-22T09:23:00.415Z,52.08
2023-03-22T09:28:04.419Z,44.78
2023-03-22T09:33:08.660Z,44.50
2023-03-22T09:38:14.538Z,45.53
2023-03-22T09:43:21.418Z,51.90
2023-03-22T09:48:36.156Z,53.15
2023-03-22T09:53:38.559Z,51.92
2023-03-22T09:59:06.278Z,53.63
2023-03-22T10:04:21.809Z,57.45
2023-03-22T10:09:57.194Z,45.92
2023-03-22T10:15:04.542Z,47.78
2023-03-22T10:20:18.942Z,45.17
2023-03-22T10:25:28.406Z,46.28
2023-03-22T10:30:39.017Z,41.25
2023-03-22T10:35:44.948Z,51.30
2023-03-22T10:40:51.116Z,42.20
2023-03-22T10:45:57.234Z,39.53
2023-03-22T10:51:04.558Z,50.95
2023-03-22T10:56:14.125Z,44.33
2023-03-22T11:01:33.567Z,44.15
2023-03-22T11:06:50.166Z,48.03
2023-03-22T11:17:10.924Z,26.55
2023-03-22T11:22:39.832Z,30.45
2023-03-22T11:27:57.961Z,27.27
2023-03-22T11:33:23.170Z,30.48
2023-03-22T11:38:32.638Z,27.73
2023-03-22T11:43:50.204Z,29.48
2023-03-22T11:49:01.316Z,27.45
2023-03-22T11:54:23.324Z,35.25
2023-03-22T11:59:32.872Z,24.25
2023-03-22T12:04:40.411Z,31.00
2023-03-22T12:10:09.194Z,35.15
2023-03-22T12:15:32.569Z,31.35
2023-03-22T12:21:01.144Z,23.48
2023-03-22T12:32:30.329Z,26.73
2023-03-22T12:37:43.436Z,20.17
2023-03-22T12:43:18.944Z,21.88
2023-03-22T12:49:05.417Z,23.88
2023-03-22T12:54:14.753Z,28.15
2023-03-22T12:59:26.029Z,25.50
2023-03-22T13:04:39.746Z,27.45
2023-03-22T13:09:50.039Z,18.45
2023-03-22T13:20:24.699Z,29.05
2023-03-22T13:25:32.133Z,21.48
2023-03-22T13:30:54.971Z,21.52
2023-03-22T13:36:29.722Z,20.50
2023-03-22T13:41:43.785Z,28.00
2023-03-22T13:47:34.774Z,19.35
2023-03-22T13:53:10.130Z,18.67
2023-03-22T13:58:33.338Z,36.20
2023-03-22T14:03:41.317Z,21.33
2023-03-22T14:08:47.511Z,15.32
2023-03-22T14:13:55.045Z,24.20
2023-03-22T14:18:58.296Z,18.90
